OQN weather

Brandywine Regional Airport
West Chester, Pennsylvania, United States

Public forecast

Using degrees Fahrenheit for public forecast. Weather courtesy of forecast.io.

METAR (pilot weather report)

Retrieved 2019/08/24 06:35 UTC (0 seconds ago):

KOQN 240635Z AUTO 35005KT 10SM CLR 17/11 A3010 RMK AO2

TAF (pilot weather forecast)

Closest forecast is Philadelphia International Airport, 17.2 nm (31.9 km) ESE. Retrieved 2019/08/24 06:24 UTC (0 seconds ago):

TAF KPHL 240521Z 2406/2512 35005KT P6SM FEW250 FM241000 02008KT P6SM BKN250 FM241400 04012KT P6SM SCT050 BKN120 FM242300 06006KT P6SM SCT200